Time;durP1;ratioP1;P1;durP2;ratioP2;P2;SDS_P1;SDS_P2;PMS_P1;PMS_P2;Temp;Humidity;BMP_temperature;BMP_pressure;BME280_temperature;BME280_humidity;BME280_pressure;Samples;Min_cycle;Max_cycle;Signal;HPM_P1;HPM_P2
2023/01/23 00:00:11;;;;;;;;;;;4.80;88.70;;;-151.14;100.00;62537.16;4935139;29;19923;-79
2023/01/23 00:02:39;;;;;;;;;;;4.70;88.60;;;-151.14;100.00;62537.16;4935146;29;20211;-79
2023/01/23 00:05:08;;;;;;;;;;;4.80;88.70;;;-151.14;100.00;62537.16;4950610;29;19923;-79
2023/01/23 00:07:36;;;;;;;;;;;4.80;88.70;;;-151.14;100.00;62537.16;4918850;29;19923;-80
2023/01/23 00:10:07;;;;;;;;;;;4.80;88.70;;;-151.14;100.00;62537.16;4935325;29;19922;-79
2023/01/23 00:12:35;;;;;;;;;;;4.70;88.80;;;-151.14;100.00;62537.16;4934657;29;20095;-80
2023/01/23 00:15:03;;;;;;;;;;;4.70;88.80;;;-151.14;100.00;62537.16;4934788;29;19945;-80
2023/01/23 00:17:31;;;;;;;;;;;4.70;88.70;;;-151.14;100.00;62537.16;4934469;29;19930;-79
2023/01/23 00:19:59;;;;;;;;;;;4.70;88.70;;;-151.14;100.00;62537.16;4934100;29;19923;-80
2023/01/23 00:22:27;;;;;;;;;;;4.80;88.70;;;-151.14;100.00;62537.16;4934126;29;19923;-80
2023/01/23 00:24:55;;;;;;;;;;;4.70;88.70;;;-151.14;100.00;62537.16;4935601;29;19923;-80
2023/01/23 00:27:24;;;;;;;;;;;4.70;88.70;;;-151.14;100.00;62537.16;4934183;29;19930;-80
2023/01/23 00:29:53;;;;;;;;;;;4.70;88.50;;;-151.14;100.00;62537.16;4949441;29;19929;-80
2023/01/23 00:32:21;;;;;;;;;;;4.70;88.60;;;-151.14;100.00;62537.16;4934409;29;19923;-79
2023/01/23 00:34:48;;;;;;;;;;;4.70;88.70;;;-151.14;100.00;62537.16;4950212;29;20232;-79
2023/01/23 00:37:16;;;;;;;;;;;4.80;88.60;;;-151.14;100.00;62537.16;4949946;29;19923;-80
2023/01/23 00:39:45;;;;;;;;;;;4.70;88.70;;;-151.14;100.00;62537.16;4934868;29;19923;-80
2023/01/23 00:42:13;;;;;;;;;;;4.80;88.70;;;-151.14;100.00;62537.16;4935182;29;19922;-80
2023/01/23 00:44:42;;;;;;;;;;;4.80;88.50;;;-151.14;100.00;62537.16;4934239;29;19923;-80
2023/01/23 00:47:10;;;;;;;;;;;4.70;88.50;;;-151.14;100.00;62537.16;4935011;29;19929;-79
2023/01/23 00:49:38;;;;;;;;;;;4.80;88.60;;;-151.14;100.00;62537.16;4917680;29;19929;-79
2023/01/23 00:52:06;;;;;;;;;;;4.70;88.50;;;-151.14;100.00;62537.16;4950051;29;20136;-80
2023/01/23 00:54:34;;;;;;;;;;;4.80;88.40;;;-151.14;100.00;62537.16;4945589;29;19922;-80
2023/01/23 00:57:02;;;;;;;;;;;4.80;88.40;;;-151.14;100.00;62537.16;4953003;29;19941;-80
2023/01/23 00:59:30;;;;;;;;;;;4.70;88.40;;;-151.14;100.00;62537.16;4952536;29;19922;-79
2023/01/23 01:01:59;;;;;;;;;;;4.80;88.40;;;-151.14;100.00;62537.16;4952729;29;19923;-80
2023/01/23 01:04:27;;;;;;;;;;;4.80;88.40;;;-151.14;100.00;62537.16;4951727;29;19922;-79
2023/01/23 01:06:55;;;;;;;;;;;4.80;88.40;;;-151.14;100.00;62537.16;4936735;29;20233;-80
2023/01/23 01:09:24;;;;;;;;;;;4.70;88.40;;;-151.14;100.00;62537.16;4968494;28;20232;-80
2023/01/23 01:11:52;;;;;;;;;;;4.70;88.50;;;-151.14;100.00;62537.16;4952271;29;20214;-80
2023/01/23 01:14:20;;;;;;;;;;;4.80;88.40;;;-151.14;100.00;62537.16;4968983;28;20214;-80
2023/01/23 01:16:48;;;;;;;;;;;4.70;88.20;;;-151.14;100.00;62537.16;4952572;29;19922;-80
2023/01/23 01:19:17;;;;;;;;;;;4.70;88.10;;;-151.14;100.00;62537.16;4946791;29;19931;-79
2023/01/23 01:21:45;;;;;;;;;;;4.70;88.10;;;-151.14;100.00;62537.16;4949257;29;19923;-80
2023/01/23 01:24:13;;;;;;;;;;;4.80;88.00;;;-151.14;100.00;62537.16;4918178;29;19923;-80
2023/01/23 01:26:41;;;;;;;;;;;4.70;87.90;;;-151.14;100.00;62537.16;4901993;29;19937;-80
2023/01/23 01:29:10;;;;;;;;;;;4.70;88.00;;;-151.14;100.00;62537.16;4933011;29;20215;-80
2023/01/23 01:31:38;;;;;;;;;;;4.70;87.90;;;-151.14;100.00;62537.16;4933444;29;19927;-80
2023/01/23 01:34:06;;;;;;;;;;;4.70;87.90;;;-151.14;100.00;62537.16;4917384;29;20130;-79
2023/01/23 01:36:36;;;;;;;;;;;4.70;87.90;;;-151.14;100.00;62537.16;4933549;29;19980;-79
2023/01/23 01:39:04;;;;;;;;;;;4.70;88.00;;;-151.14;100.00;62537.16;4932971;29;19923;-80
2023/01/23 01:41:32;;;;;;;;;;;4.70;88.10;;;-151.14;100.00;62537.16;4901748;29;20118;-79
2023/01/23 01:44:00;;;;;;;;;;;4.80;88.20;;;-151.14;100.00;62537.16;4917665;29;19929;-79
2023/01/23 01:46:29;;;;;;;;;;;4.70;88.20;;;-151.14;100.00;62537.16;4933091;29;20215;-80
2023/01/23 01:49:02;;;;;;;;;;;4.70;88.10;;;-151.14;100.00;62537.16;4917013;29;19923;-80
2023/01/23 01:51:32;;;;;;;;;;;4.70;88.20;;;-151.14;100.00;62537.16;4898312;29;20096;-80
2023/01/23 01:54:05;;;;;;;;;;;4.70;88.40;;;-151.14;100.00;62537.16;4915431;29;20223;-80
2023/01/23 01:56:35;;;;;;;;;;;4.80;88.40;;;-151.14;100.00;62537.16;4915104;29;19923;-80
2023/01/23 01:59:04;;;;;;;;;;;4.70;88.40;;;-151.14;100.00;62537.16;4913954;29;19945;-80
2023/01/23 02:01:31;;;;;;;;;;;4.70;88.50;;;-151.14;100.00;62537.16;4935687;29;19923;-79
2023/01/23 02:03:59;;;;;;;;;;;4.70;88.40;;;-151.14;100.00;62537.16;4968289;28;19929;-80
2023/01/23 02:06:27;;;;;;;;;;;4.80;88.50;;;-151.14;100.00;62537.16;4918763;29;19929;-79
2023/01/23 02:09:00;;;;;;;;;;;4.70;88.50;;;-151.14;100.00;62537.16;4932865;29;19923;-79
2023/01/23 02:11:30;;;;;;;;;;;4.70;88.50;;;-151.14;100.00;62537.16;4901444;29;19922;-80
2023/01/23 02:13:58;;;;;;;;;;;4.70;88.70;;;-151.14;100.00;62537.16;4917394;29;19938;-79
2023/01/23 02:16:28;;;;;;;;;;;4.80;88.70;;;187.61;100.00;62537.16;4919821;29;20118;-80
2023/01/23 02:18:59;;;;;;;;;;;4.80;88.70;;;-151.14;100.00;62537.16;4920275;29;20233;-80
2023/01/23 02:21:27;;;;;;;;;;;4.70;88.80;;;-151.14;100.00;62537.16;4937323;29;19922;-80
2023/01/23 02:24:11;;;;;;;;;;;4.70;88.70;;;-151.14;100.00;62537.16;4920587;29;19930;-80
2023/01/23 02:26:42;;;;;;;;;;;4.80;88.60;;;-151.14;100.00;62537.16;4904597;29;19923;-80
2023/01/23 02:29:11;;;;;;;;;;;4.70;88.70;;;-151.14;100.00;62537.16;4935657;29;19923;-79
2023/01/23 02:31:50;;;;;;;;;;;4.80;88.70;;;-151.14;100.00;62537.16;4920171;29;19923;-80
2023/01/23 02:34:21;;;;;;;;;;;4.80;88.70;;;-151.14;100.00;62537.16;4920511;29;20095;-80
2023/01/23 02:36:49;;;;;;;;;;;4.70;88.80;;;-151.14;100.00;62537.16;4904336;29;19923;-79
2023/01/23 02:39:17;;;;;;;;;;;4.70;88.70;;;;;;4919822;29;19973;-79
2023/01/23 02:41:50;;;;;;;;;;;4.70;88.70;;;-151.14;100.00;62537.16;4920090;29;20207;-79
2023/01/23 02:44:25;;;;;;;;;;;4.70;88.70;;;-151.14;100.00;62537.16;4920390;29;19929;-79
2023/01/23 02:46:55;;;;;;;;;;;4.70;88.70;;;-151.14;100.00;62537.16;4935430;29;20210;-79
2023/01/23 02:49:23;;;;;;;;;;;4.80;88.70;;;-151.14;100.00;62537.16;4954512;29;19923;-80
2023/01/23 02:51:51;;;;;;;;;;;4.80;88.80;;;-151.14;100.00;62537.16;4954751;29;19938;-80
2023/01/23 02:54:19;;;;;;;;;;;4.70;88.70;;;-151.14;100.00;62537.16;4954900;29;19922;-80
2023/01/23 02:56:49;;;;;;;;;;;4.70;88.70;;;-151.14;100.00;62537.16;4932563;29;20241;-79
2023/01/23 03:02:04;;;;;;;;;;;4.70;88.80;;;-151.14;100.00;62537.16;4901047;29;19927;-80
2023/01/23 03:04:33;;;;;;;;;;;4.70;88.70;;;-151.14;100.00;62537.16;4901020;29;19923;-79
2023/01/23 03:07:01;;;;;;;;;;;4.70;88.70;;;-151.14;100.00;62537.16;4901113;29;19929;-80
2023/01/23 03:09:29;;;;;;;;;;;4.70;88.70;;;-151.14;100.00;62537.16;4900469;29;19930;-79
2023/01/23 03:11:59;;;;;;;;;;;4.70;88.70;;;-151.14;100.00;62537.16;4916312;29;19923;-80
2023/01/23 03:14:28;;;;;;;;;;;4.70;88.70;;;-151.14;100.00;62537.16;4900774;29;19923;-80
2023/01/23 03:16:57;;;;;;;;;;;4.70;88.70;;;-151.14;100.00;62537.16;4917380;29;19923;-80
2023/01/23 03:19:30;;;;;;;;;;;4.70;88.70;;;-151.14;100.00;62537.16;4931734;29;19923;-80
2023/01/23 03:21:59;;;;;;;;;;;4.80;88.70;;;-151.14;100.00;62537.16;4916582;29;19923;-79
2023/01/23 03:24:27;;;;;;;;;;;4.70;88.80;;;-151.14;100.00;62537.16;4916300;29;20096;-79
2023/01/23 03:26:55;;;;;;;;;;;4.70;88.80;;;-151.14;100.00;62537.16;4915337;29;20126;-80
2023/01/23 03:32:11;;;;;;;;;;;4.70;88.90;;;-151.14;100.00;62537.16;4935548;29;19929;-80
2023/01/23 03:34:40;;;;;;;;;;;4.70;89.00;;;-151.14;100.00;62537.16;4921712;29;20229;-80
2023/01/23 03:37:08;;;;;;;;;;;4.70;88.90;;;-151.14;100.00;62537.16;4953706;29;19922;-79
2023/01/23 03:42:23;;;;;;;;;;;4.70;88.80;;;-151.14;100.00;62537.16;4970145;28;19922;-80
2023/01/23 03:44:55;;;;;;;;;;;4.70;88.80;;;-151.14;100.00;62537.16;4938040;29;19927;-79
2023/01/23 03:47:26;;;;;;;;;;;4.70;88.90;;;-151.14;100.00;62537.16;4925755;29;20233;-79
2023/01/23 03:49:55;;;;;;;;;;;4.70;88.80;;;-151.14;100.00;62537.16;4902992;29;20113;-80
2023/01/23 03:52:23;;;;;;;;;;;4.70;88.70;;;-151.14;100.00;62537.16;4930056;29;19922;-80
2023/01/23 03:54:51;;;;;;;;;;;4.70;88.70;;;-151.14;100.00;62537.16;4954061;29;20095;-79
2023/01/23 03:57:20;;;;;;;;;;;4.70;88.80;;;-151.14;100.00;62537.16;4954119;29;19929;-79
2023/01/23 04:00:16;;;;;;;;;;;4.70;88.90;;;-151.14;100.00;62537.16;4952422;28;19923;-80
2023/01/23 04:02:50;;;;;;;;;;;4.80;88.90;;;-151.14;100.00;62537.16;4924446;29;20081;-80
2023/01/23 04:05:18;;;;;;;;;;;4.70;88.90;;;18.09;100.00;62537.16;4919079;29;19923;-79
2023/01/23 04:07:46;;;;;;;;;;;4.70;88.80;;;-151.14;100.00;62537.16;4918964;29;19923;-80
2023/01/23 04:10:15;;;;;;;;;;;4.80;89.10;;;-151.14;100.00;62537.16;4918679;29;19929;-80
2023/01/23 04:12:46;;;;;;;;;;;4.70;88.80;;;-151.14;100.00;62537.16;4914201;29;19929;-79
2023/01/23 04:15:17;;;;;;;;;;;4.80;88.70;;;-151.14;100.00;62537.16;4953724;29;20232;-79
2023/01/23 04:17:45;;;;;;;;;;;4.70;88.80;;;-151.14;100.00;62537.16;4911305;29;19922;-80
2023/01/23 04:20:14;;;;;;;;;;;4.80;88.70;;;-151.14;100.00;62537.16;4918335;29;19938;-79
2023/01/23 04:22:44;;;;;;;;;;;4.70;88.70;;;-151.14;100.00;62537.16;4934921;29;19922;-80
2023/01/23 04:25:12;;;;;;;;;;;4.70;88.80;;;-151.14;100.00;62537.16;4969448;28;20114;-80
2023/01/23 04:27:40;;;;;;;;;;;4.80;88.80;;;-151.14;100.00;62537.16;4953333;29;19929;-80
2023/01/23 04:30:11;;;;;;;;;;;4.70;88.80;;;-151.14;100.00;62537.16;4952932;29;19922;-80
2023/01/23 04:32:41;;;;;;;;;;;4.80;88.70;;;-151.14;100.00;62537.16;4969360;28;19928;-79
2023/01/23 04:35:10;;;;;;;;;;;4.70;89.50;;;-151.14;100.00;62537.16;4953403;29;20126;-79
2023/01/23 04:37:40;;;;;;;;;;;4.80;88.80;;;-151.14;100.00;62537.16;4953223;29;19927;-80
2023/01/23 04:40:10;;;;;;;;;;;4.70;88.70;;;-151.14;100.00;62537.16;4952759;29;20122;-79
2023/01/23 04:43:04;;;;;;;;;;;4.70;88.70;;;-151.14;100.00;62537.16;4956479;28;19923;-80
2023/01/23 04:45:36;;;;;;;;;;;4.70;88.70;;;-151.14;100.00;62537.16;4933989;29;19930;-80
2023/01/23 04:48:32;;;;;;;;;;;4.70;88.70;;;-151.14;100.00;62537.16;4933282;29;20207;-80
2023/01/23 04:51:00;;;;;;;;;;;4.70;88.70;;;-151.14;100.00;62537.16;4934136;29;19945;-80
2023/01/23 04:53:28;;;;;;;;;;;4.80;88.70;;;-151.14;100.00;62537.16;4961374;28;19929;-80
2023/01/23 04:56:01;;;;;;;;;;;4.80;88.80;;;-151.14;100.00;62537.16;4969396;28;19922;-79
2023/01/23 04:58:29;;;;;;;;;;;4.80;88.70;;;-151.14;100.00;62537.16;4941244;29;19923;-80
2023/01/23 05:01:02;;;;;;;;;;;4.70;88.80;;;-151.14;100.00;62537.16;4934049;29;19922;-80
2023/01/23 05:03:34;;;;;;;;;;;4.70;88.70;;;187.61;100.00;62537.16;4928638;29;19922;-80
2023/01/23 05:06:02;;;;;;;;;;;4.70;88.80;;;-151.14;100.00;62537.16;4952796;29;19922;-80
2023/01/23 05:08:30;;;;;;;;;;;4.70;88.70;;;-151.14;100.00;62537.16;4942221;29;19937;-80
2023/01/23 05:11:12;;;;;;;;;;;4.80;88.70;;;-151.14;100.00;62537.16;4933931;29;19945;-79
2023/01/23 05:13:40;;;;;;;;;;;4.70;88.70;;;-151.14;100.00;62537.16;4960245;28;20113;-80
2023/01/23 05:16:08;;;;;;;;;;;4.70;88.60;;;-151.14;100.00;62537.16;4969014;28;19922;-79
2023/01/23 05:18:58;;;;;;;;;;;4.80;88.60;;;-151.14;100.00;62537.16;4939776;29;19929;-80
2023/01/23 05:21:26;;;;;;;;;;;4.70;88.50;;;-151.14;100.00;62537.16;4933732;29;19923;-79
2023/01/23 05:23:54;;;;;;;;;;;4.70;88.60;;;-151.14;100.00;62537.16;4933368;29;20286;-79
2023/01/23 05:26:23;;;;;;;;;;;4.70;88.60;;;-151.14;100.00;62537.16;4933799;29;19933;-79
2023/01/23 05:28:51;;;;;;;;;;;4.80;88.60;;;-151.14;100.00;62537.16;4942869;29;19922;-80
2023/01/23 05:31:21;;;;;;;;;;;4.70;88.50;;;-151.14;100.00;62537.16;4952683;29;19958;-80
2023/01/23 05:34:10;;;;;;;;;;;4.70;88.50;;;-151.14;100.00;62537.16;4952379;29;19922;-79
2023/01/23 05:36:40;;;;;;;;;;;4.70;88.50;;;-151.14;100.00;62537.16;4952492;29;19923;-80
2023/01/23 05:39:09;;;;;;;;;;;4.70;88.40;;;-151.14;100.00;62537.16;4952155;29;19923;-79
2023/01/23 05:41:38;;;;;;;;;;;4.70;88.40;;;-151.14;100.00;62537.16;4968550;28;20117;-79
2023/01/23 05:44:25;;;;;;;;;;;4.70;88.30;;;-151.14;100.00;62537.16;4939430;29;19923;-80
2023/01/23 05:46:58;;;;;;;;;;;4.70;88.40;;;-151.14;100.00;62537.16;4933284;29;19923;-80
2023/01/23 05:49:27;;;;;;;;;;;4.70;88.30;;;-151.14;100.00;62537.16;4932796;29;19923;-80
2023/01/23 05:51:57;;;;;;;;;;;4.70;88.20;;;19.40;100.00;62537.16;4936547;29;19929;-80
2023/01/23 05:54:26;;;;;;;;;;;4.70;88.20;;;-151.14;100.00;62537.16;4920951;29;19922;-79
2023/01/23 05:56:54;;;;;;;;;;;4.70;88.20;;;-151.14;100.00;62537.16;4952689;29;19923;-80
2023/01/23 05:59:41;;;;;;;;;;;4.70;88.10;;;-151.14;100.00;62537.16;4948328;29;19923;-80
2023/01/23 06:02:27;;;;;;;;;;;4.70;88.00;;;-151.14;100.00;62537.16;4955305;29;19929;-80
2023/01/23 06:05:15;;;;;;;;;;;4.70;88.10;;;-151.14;100.00;62537.16;4955512;29;19926;-80
2023/01/23 06:08:02;;;;;;;;;;;4.70;88.40;;;3.45;100.00;62537.16;4971381;28;19922;-80
2023/01/23 06:10:31;;;;;;;;;;;4.70;88.50;;;-151.14;100.00;62537.16;4953282;28;19929;-80
2023/01/23 06:12:59;;;;;;;;;;;4.70;88.50;;;-151.14;100.00;62537.16;4920356;29;19923;-80
2023/01/23 06:15:27;;;;;;;;;;;4.70;88.40;;;-151.14;100.00;62537.16;4951984;29;20107;-79
2023/01/23 06:17:56;;;;;;;;;;;4.70;88.40;;;-151.14;100.00;62537.16;4951937;29;19922;-80
2023/01/23 06:20:27;;;;;;;;;;;4.70;88.40;;;-151.14;100.00;62537.16;4952023;29;19923;-79
2023/01/23 06:22:55;;;;;;;;;;;4.70;88.40;;;-151.14;100.00;62537.16;4939004;29;19937;-80
2023/01/23 06:25:23;;;;;;;;;;;4.80;88.30;;;-151.14;100.00;62537.16;4955141;29;19922;-80
2023/01/23 06:27:54;;;;;;;;;;;4.80;88.40;;;-151.14;100.00;62537.16;4954773;29;20138;-80
2023/01/23 06:30:22;;;;;;;;;;;4.80;88.40;;;-151.14;100.00;62537.16;4971195;28;20210;-80
2023/01/23 06:32:51;;;;;;;;;;;4.80;88.30;;;-151.14;100.00;62537.16;4955002;29;19937;-80
2023/01/23 06:35:22;;;;;;;;;;;4.80;88.20;;;-151.14;100.00;62537.16;4954905;29;19922;-79
2023/01/23 06:37:52;;;;;;;;;;;4.80;88.10;;;-151.14;100.00;62537.16;4955130;29;19922;-80
2023/01/23 06:40:21;;;;;;;;;;;4.90;88.10;;;-151.14;100.00;62537.16;4954935;29;20095;-80
2023/01/23 06:43:18;;;;;;;;;;;4.90;88.00;;;-151.14;100.00;62537.16;4948012;29;19945;-80
2023/01/23 06:45:47;;;;;;;;;;;4.90;88.00;;;3.63;100.00;62537.16;4970878;28;20150;-80
2023/01/23 06:48:16;;;;;;;;;;;5.00;87.90;;;-151.14;100.00;62537.16;4954398;29;19922;-80
2023/01/23 06:50:44;;;;;;;;;;;5.00;87.80;;;-151.14;100.00;62537.16;4953092;28;19929;-79
2023/01/23 06:53:16;;;;;;;;;;;5.00;87.80;;;3.69;100.00;62537.16;4948400;29;19923;-80
2023/01/23 06:55:45;;;;;;;;;;;5.00;87.80;;;-151.14;100.00;62537.16;4916556;29;19923;-80
2023/01/23 06:58:15;;;;;;;;;;;5.00;87.70;;;-151.14;100.00;62537.16;4916227;29;19923;-80
2023/01/23 07:00:44;;;;;;;;;;;5.00;87.60;;;-151.14;100.00;62537.16;4932471;29;19946;-80
2023/01/23 07:03:17;;;;;;;;;;;5.00;87.50;;;-151.14;100.00;62537.16;4932532;29;20119;-80
2023/01/23 07:05:45;;;;;;;;;;;5.10;87.50;;;-151.14;100.00;62537.16;4917709;29;19930;-80
2023/01/23 07:08:15;;;;;;;;;;;5.10;87.60;;;-151.14;100.00;62537.16;4916297;29;20220;-80
2023/01/23 07:10:43;;;;;;;;;;;5.20;87.50;;;-151.14;100.00;62537.16;4946762;29;19922;-80
2023/01/23 07:13:12;;;;;;;;;;;5.20;87.40;;;-151.14;100.00;62537.16;4938577;29;19931;-80
2023/01/23 07:15:40;;;;;;;;;;;5.20;87.40;;;-151.14;100.00;62537.16;4943869;29;19923;-79
2023/01/23 07:18:09;;;;;;;;;;;5.20;87.30;;;-151.14;100.00;62537.16;4950950;29;19937;-80
2023/01/23 07:20:37;;;;;;;;;;;5.20;87.30;;;-151.14;100.00;62537.16;4935170;29;19923;-80
2023/01/23 07:23:05;;;;;;;;;;;5.30;87.30;;;-151.14;100.00;62537.16;4935384;29;19923;-80
2023/01/23 07:25:34;;;;;;;;;;;5.30;87.20;;;-151.14;100.00;62537.16;4935428;29;19930;-80
2023/01/23 07:28:02;;;;;;;;;;;5.30;87.00;;;-151.14;100.00;62537.16;4935961;29;19923;-80
2023/01/23 07:30:30;;;;;;;;;;;5.30;87.00;;;-151.14;100.00;62537.16;4935291;29;19929;-80
2023/01/23 07:32:58;;;;;;;;;;;5.40;87.00;;;-151.14;100.00;62537.16;4935237;29;20126;-79
2023/01/23 07:35:26;;;;;;;;;;;5.40;86.80;;;-151.14;100.00;62537.16;4935319;29;19930;-80
2023/01/23 07:37:54;;;;;;;;;;;5.40;86.80;;;-151.14;100.00;62537.16;4918893;29;19938;-80
2023/01/23 07:40:22;;;;;;;;;;;5.40;86.70;;;-151.14;100.00;62537.16;4939859;29;19922;-80
2023/01/23 07:42:52;;;;;;;;;;;5.50;86.80;;;-151.14;100.00;62537.16;4954365;29;19949;-80
2023/01/23 07:45:20;;;;;;;;;;;5.50;86.90;;;18.09;100.00;62537.16;4970403;28;19929;-80
2023/01/23 07:47:47;;;;;;;;;;;5.50;87.00;;;-151.14;100.00;62537.16;4954019;29;19929;-79
2023/01/23 07:50:15;;;;;;;;;;;5.60;86.90;;;-151.14;100.00;62537.16;4954817;29;20228;-80
2023/01/23 07:52:43;;;;;;;;;;;5.60;87.00;;;-151.14;100.00;62537.16;4938099;29;19923;-80
2023/01/23 07:55:11;;;;;;;;;;;5.60;86.90;;;18.09;100.00;62537.16;4952563;29;19922;-80
2023/01/23 07:57:39;;;;;;;;;;;5.60;86.80;;;-151.14;100.00;62537.16;4950557;29;19929;-80
2023/01/23 08:00:10;;;;;;;;;;;5.60;86.60;;;-151.14;100.00;62537.16;4950337;29;19929;-80
2023/01/23 08:02:41;;;;;;;;;;;5.60;86.50;;;-151.14;100.00;62537.16;4950584;29;19923;-80
2023/01/23 08:05:09;;;;;;;;;;;5.70;86.60;;;-151.14;100.00;62537.16;4950835;29;19923;-80
2023/01/23 08:07:37;;;;;;;;;;;5.80;86.50;;;-151.14;100.00;62537.16;4915612;29;19923;-80
2023/01/23 08:10:06;;;;;;;;;;;5.70;86.20;;;-151.14;100.00;62537.16;4916992;29;19923;-80
2023/01/23 08:12:34;;;;;;;;;;;5.80;86.10;;;-151.14;100.00;62537.16;4951039;29;19923;-80
2023/01/23 08:15:02;;;;;;;;;;;5.80;85.90;;;-151.14;100.00;62537.16;4937859;29;19922;-80
2023/01/23 08:17:31;;;;;;;;;;;5.80;85.80;;;-151.14;100.00;62537.16;4952703;28;19945;-80
2023/01/23 08:19:59;;;;;;;;;;;5.90;85.70;;;-151.14;100.00;62537.16;4934253;29;20232;-80
2023/01/23 08:22:27;;;;;;;;;;;5.90;85.70;;;-151.14;100.00;62537.16;4935547;29;19923;-80
2023/01/23 08:24:55;;;;;;;;;;;5.90;85.60;;;-151.14;100.00;62537.16;4950571;29;19929;-80
2023/01/23 08:27:24;;;;;;;;;;;6.00;85.60;;;-151.14;100.00;62537.16;4933247;29;19930;-79
2023/01/23 08:29:52;;;;;;;;;;;6.00;85.50;;;-151.14;100.00;62537.16;4969043;28;19928;-80
2023/01/23 08:32:20;;;;;;;;;;;6.00;85.40;;;-151.14;100.00;62537.16;4953357;29;19922;-79
2023/01/23 08:34:49;;;;;;;;;;;6.00;85.30;;;-151.14;100.00;62537.16;4954711;29;20229;-80
2023/01/23 08:37:17;;;;;;;;;;;6.00;85.90;;;;;;4941647;29;19929;-79
2023/01/23 08:39:44;;;;;;;;;;;6.10;85.20;;;-151.14;100.00;62537.16;4918017;29;19923;-80
2023/01/23 08:42:13;;;;;;;;;;;6.10;85.10;;;-151.14;100.00;62537.16;4918037;29;20122;-79
2023/01/23 08:44:41;;;;;;;;;;;6.10;85.00;;;-151.14;100.00;62537.16;4918625;29;20130;-80
2023/01/23 08:47:08;;;;;;;;;;;6.10;84.90;;;-151.14;100.00;62537.16;4902540;29;19926;-80
2023/01/23 08:49:37;;;;;;;;;;;6.10;84.80;;;-151.14;100.00;62537.16;4917998;29;19923;-80
2023/01/23 08:52:06;;;;;;;;;;;6.10;84.70;;;-151.14;100.00;62537.16;4927085;29;20083;-80
2023/01/23 08:54:34;;;;;;;;;;;6.00;84.60;;;-151.14;100.00;62537.16;4953002;29;19926;-79
2023/01/23 08:57:02;;;;;;;;;;;6.00;84.90;;;-151.14;100.00;62537.16;4937129;29;20244;-80
2023/01/23 08:59:30;;;;;;;;;;;6.00;84.90;;;-151.14;100.00;62537.16;4920729;29;19922;-79
2023/01/23 09:01:58;;;;;;;;;;;5.90;85.20;;;-151.14;100.00;62537.16;4937017;29;19929;-79
2023/01/23 09:04:26;;;;;;;;;;;5.90;85.40;;;-151.14;100.00;62537.16;4953227;29;19922;-80
2023/01/23 09:06:54;;;;;;;;;;;5.90;85.40;;;-151.14;100.00;62537.16;4952826;29;19929;-80
2023/01/23 09:09:23;;;;;;;;;;;5.80;85.40;;;-151.14;100.00;62537.16;4936427;29;19983;-80
2023/01/23 09:11:51;;;;;;;;;;;5.80;85.60;;;-151.14;100.00;62537.16;4953837;29;19929;-80
2023/01/23 09:14:19;;;;;;;;;;;5.80;85.70;;;-151.14;100.00;62537.16;4936924;29;20218;-80
2023/01/23 09:16:47;;;;;;;;;;;5.70;85.80;;;-151.14;100.00;62537.16;4952404;29;19922;-79
2023/01/23 09:19:15;;;;;;;;;;;5.70;86.00;;;-151.14;100.00;62537.16;4936450;29;19923;-80
2023/01/23 09:21:43;;;;;;;;;;;5.80;86.10;;;-151.14;100.00;62537.16;4953627;29;19929;-80
2023/01/23 09:24:11;;;;;;;;;;;5.80;86.00;;;-151.14;100.00;62537.16;4936228;29;20121;-80
2023/01/23 09:26:42;;;;;;;;;;;5.80;86.00;;;-151.14;100.00;62537.16;4936570;29;19942;-80
2023/01/23 09:29:10;;;;;;;;;;;5.80;85.90;;;-151.14;100.00;62537.16;4936291;29;19929;-80
2023/01/23 09:31:38;;;;;;;;;;;5.80;85.80;;;-151.14;100.00;62537.16;4936544;29;19929;-80
2023/01/23 09:34:07;;;;;;;;;;;5.90;85.90;;;-151.14;100.00;62537.16;4936364;29;19922;-80
2023/01/23 09:36:35;;;;;;;;;;;5.90;85.90;;;-151.14;100.00;62537.16;4936470;29;19922;-80
2023/01/23 09:39:03;;;;;;;;;;;5.90;85.70;;;-151.14;100.00;62537.16;4936234;29;19923;-80
2023/01/23 09:41:31;;;;;;;;;;;5.90;85.70;;;-151.14;100.00;62537.16;4936729;29;19944;-80
2023/01/23 09:44:04;;;;;;;;;;;6.00;85.60;;;-151.14;100.00;62537.16;4920617;29;19933;-80
2023/01/23 09:46:35;;;;;;;;;;;6.00;85.60;;;18.08;100.00;62537.16;4936459;29;19929;-80
2023/01/23 09:49:03;;;;;;;;;;;6.00;85.60;;;-151.14;100.00;62537.16;4967947;28;19923;-80
2023/01/23 09:51:40;;;;;;;;;;;6.00;85.60;;;-151.14;100.00;62537.16;4936511;29;19922;-80
2023/01/23 09:54:16;;;;;;;;;;;6.00;85.40;;;-151.14;100.00;62537.16;4915565;29;19924;-79
2023/01/23 09:56:45;;;;;;;;;;;6.00;85.40;;;60.43;100.00;62537.16;4898990;29;19929;-80
2023/01/23 09:59:25;;;;;;;;;;;6.00;85.40;;;-151.14;100.00;62537.16;4914708;29;19923;-80
2023/01/23 10:01:53;;;;;;;;;;;6.00;85.40;;;-151.14;100.00;62537.16;4898310;29;19946;-80
2023/01/23 10:04:22;;;;;;;;;;;6.00;85.40;;;-151.14;100.00;62537.16;4898615;29;20211;-80
2023/01/23 10:07:11;;;;;;;;;;;6.00;85.40;;;-151.14;100.00;62537.16;4883094;29;19930;-80
2023/01/23 10:09:50;;;;;;;;;;;6.00;85.40;;;-151.14;100.00;62537.16;4898024;29;20237;-80
2023/01/23 10:12:25;;;;;;;;;;;6.00;85.40;;;187.61;100.00;62537.16;4915205;29;19945;-80
2023/01/23 10:15:15;;;;;;;;;;;6.00;85.30;;;-151.14;100.00;62537.16;4883014;29;19945;-80
2023/01/23 10:17:47;;;;;;;;;;;6.00;85.40;;;-151.14;100.00;62537.16;4895695;29;20122;-80
2023/01/23 10:20:28;;;;;;;;;;;6.00;85.40;;;-151.14;100.00;62537.16;4914743;29;19924;-80
2023/01/23 10:23:01;;;;;;;;;;;6.00;85.40;;;-151.14;100.00;62537.16;4922091;29;19938;-79
2023/01/23 10:25:31;;;;;;;;;;;6.00;86.20;;;-151.14;100.00;62537.16;4930205;29;19930;-80
2023/01/23 10:28:02;;;;;;;;;;;6.00;85.40;;;-151.14;100.00;62537.16;4913400;29;19938;-80
2023/01/23 10:30:33;;;;;;;;;;;6.00;85.30;;;-151.14;100.00;62537.16;4914017;29;19923;-80
2023/01/23 10:33:02;;;;;;;;;;;6.00;85.30;;;187.61;100.00;62537.16;4929728;29;19924;-80
2023/01/23 10:35:34;;;;;;;;;;;6.00;85.30;;;-151.14;100.00;62537.16;4914256;29;19923;-79
2023/01/23 10:38:05;;;;;;;;;;;6.00;85.30;;;-151.14;100.00;62537.16;4916339;29;19929;-80
2023/01/23 10:43:19;;;;;;;;;;;6.00;85.20;;;-151.14;100.00;62537.16;4924798;29;19929;-80
2023/01/23 10:45:49;;;;;;;;;;;6.00;85.20;;;-151.14;100.00;62537.16;4955190;29;19922;-80
2023/01/23 10:48:43;;;;;;;;;;;6.00;85.20;;;-151.14;100.00;62537.16;4970682;28;19929;-80
2023/01/23 10:51:34;;;;;;;;;;;6.00;85.20;;;-151.14;100.00;62537.16;4955110;29;20118;-79
2023/01/23 10:54:03;;;;;;;;;;;6.00;85.20;;;-151.14;100.00;62537.16;4954691;29;19929;-79
2023/01/23 10:56:31;;;;;;;;;;;6.00;85.30;;;-151.14;100.00;62537.16;4955935;29;19922;-80
2023/01/23 10:59:00;;;;;;;;;;;6.00;85.20;;;4.66;100.00;62537.16;4954281;29;19929;-80
2023/01/23 11:01:30;;;;;;;;;;;6.00;85.30;;;-151.14;100.00;62537.16;4954967;29;20206;-80
2023/01/23 11:03:58;;;;;;;;;;;6.00;85.20;;;-151.14;100.00;62537.16;4954606;29;19922;-80
2023/01/23 11:06:27;;;;;;;;;;;6.00;85.20;;;-151.14;100.00;62537.16;4954894;29;20215;-80
2023/01/23 11:08:56;;;;;;;;;;;5.90;85.20;;;-151.14;100.00;62537.16;4955315;29;19922;-80
2023/01/23 11:11:25;;;;;;;;;;;5.90;85.20;;;-151.14;100.00;62537.16;4954603;29;20237;-80
2023/01/23 11:14:05;;;;;;;;;;;5.90;85.20;;;-151.14;100.00;62537.16;4970279;28;19923;-80
2023/01/23 11:16:35;;;;;;;;;;;5.90;85.40;;;-151.14;100.00;62537.16;4970760;28;20355;-80
2023/01/23 11:19:11;;;;;;;;;;;5.90;85.40;;;-151.14;100.00;62537.16;4953947;29;19930;-80
2023/01/23 11:21:50;;;;;;;;;;;5.90;85.40;;;-151.14;100.00;62537.16;4970612;28;19929;-80
2023/01/23 11:24:19;;;;;;;;;;;5.90;85.50;;;-151.14;100.00;62537.16;4955600;29;20236;-80
2023/01/23 11:26:47;;;;;;;;;;;5.90;85.40;;;-151.14;100.00;62537.16;4938763;29;19931;-80
2023/01/23 11:29:21;;;;;;;;;;;5.90;85.50;;;4.58;100.00;81771.09;4937854;29;19930;-80